createdAt,value
2018-06-04T00:00:19.214Z,18.50
2018-06-04T00:02:47.773Z,18.40
2018-06-04T00:05:16.299Z,18.40
2018-06-04T00:07:44.852Z,18.30
2018-06-04T00:10:20.040Z,18.30
2018-06-04T00:12:50.843Z,18.30
2018-06-04T00:15:19.850Z,18.20
2018-06-04T00:17:48.335Z,18.20
2018-06-04T00:20:16.912Z,18.20
2018-06-04T00:22:45.567Z,18.20
2018-06-04T00:25:14.141Z,18.20
2018-06-04T00:27:42.632Z,18.20
2018-06-04T00:30:11.168Z,18.10
2018-06-04T00:32:39.756Z,18.20
2018-06-04T00:35:08.341Z,18.10
2018-06-04T00:37:36.917Z,18.10
2018-06-04T00:40:05.452Z,18.10
2018-06-04T00:42:33.982Z,18.10
2018-06-04T00:45:02.520Z,18.00
2018-06-04T00:47:31.053Z,18.00
2018-06-04T00:49:59.652Z,18.00
2018-06-04T00:52:28.298Z,17.90
2018-06-04T00:54:56.873Z,17.90
2018-06-04T00:57:25.364Z,17.80
2018-06-04T00:59:54.678Z,17.80
2018-06-04T01:02:23.280Z,17.80
2018-06-04T01:04:51.798Z,17.80
2018-06-04T01:07:20.302Z,17.70
2018-06-04T01:09:48.851Z,17.70
2018-06-04T01:12:17.357Z,17.70
2018-06-04T01:14:45.897Z,17.60
2018-06-04T01:17:14.440Z,17.60
2018-06-04T01:19:43.089Z,17.60
2018-06-04T01:22:11.628Z,17.60
2018-06-04T01:24:40.142Z,17.50
2018-06-04T01:27:08.718Z,17.50
2018-06-04T01:29:37.264Z,17.50
2018-06-04T01:32:05.839Z,17.40
2018-06-04T01:34:34.407Z,17.40
2018-06-04T01:37:02.979Z,17.40
2018-06-04T01:39:32.332Z,17.40
2018-06-04T01:42:01.107Z,17.40
2018-06-04T01:44:29.607Z,17.40
2018-06-04T01:46:58.412Z,17.40
2018-06-04T01:49:27.171Z,17.40
2018-06-04T01:51:55.676Z,17.40
2018-06-04T01:54:24.224Z,17.30
2018-06-04T01:56:52.737Z,17.30
2018-06-04T01:59:21.228Z,17.30
2018-06-04T02:01:49.715Z,17.30
2018-06-04T02:04:18.400Z,17.20
2018-06-04T02:06:46.988Z,17.20
2018-06-04T02:09:15.564Z,17.20
2018-06-04T02:11:44.074Z,17.20
2018-06-04T02:14:12.618Z,17.20
2018-06-04T02:16:41.204Z,17.20
2018-06-04T02:19:09.710Z,17.10
2018-06-04T02:21:38.179Z,17.10
2018-06-04T02:24:06.813Z,17.10
2018-06-04T02:26:35.361Z,17.10
2018-06-04T02:29:03.978Z,17.00
2018-06-04T02:31:32.421Z,17.00
2018-06-04T02:34:01.086Z,17.00
2018-06-04T02:36:30.513Z,17.00
2018-06-04T02:38:59.154Z,17.00
2018-06-04T02:41:27.675Z,17.00
2018-06-04T02:43:56.203Z,17.00
2018-06-04T02:46:24.738Z,17.00
2018-06-04T02:48:53.307Z,16.90
2018-06-04T02:51:21.851Z,16.90
2018-06-04T02:53:50.354Z,16.90
2018-06-04T02:56:18.931Z,16.90
2018-06-04T02:58:47.655Z,16.80
2018-06-04T03:01:16.187Z,16.80
2018-06-04T03:03:44.718Z,16.80
2018-06-04T03:06:13.260Z,16.80
2018-06-04T03:08:41.843Z,16.80
2018-06-04T03:11:10.449Z,16.80
2018-06-04T03:13:38.962Z,16.80
2018-06-04T03:16:07.473Z,16.80
2018-06-04T03:18:36.031Z,16.80
2018-06-04T03:21:04.619Z,16.80
2018-06-04T03:23:33.182Z,16.80
2018-06-04T03:26:01.744Z,16.80
2018-06-04T03:28:30.794Z,16.80
2018-06-04T03:30:59.374Z,16.80
2018-06-04T03:33:27.965Z,16.80
2018-06-04T03:35:56.501Z,16.80
2018-06-04T03:38:25.025Z,16.80
2018-06-04T03:40:54.072Z,16.80
2018-06-04T03:43:22.553Z,16.80
2018-06-04T03:45:51.620Z,16.80
2018-06-04T03:48:20.192Z,16.80
2018-06-04T03:50:48.708Z,16.80
2018-06-04T03:53:17.242Z,16.70
2018-06-04T03:55:45.819Z,16.70
2018-06-04T03:58:14.349Z,16.80
2018-06-04T04:00:42.918Z,16.80
2018-06-04T04:03:11.449Z,16.80
2018-06-04T04:05:40.299Z,16.80
2018-06-04T04:08:09.213Z,16.80
2018-06-04T04:10:40.470Z,16.80
2018-06-04T04:13:11.033Z,16.90
2018-06-04T04:15:40.009Z,16.90
2018-06-04T04:18:08.885Z,16.90
2018-06-04T04:21:04.439Z,17.00
2018-06-04T04:23:33.814Z,17.00
2018-06-04T04:26:05.233Z,17.00
2018-06-04T04:28:34.197Z,17.00
2018-06-04T04:31:10.928Z,17.00
2018-06-04T04:33:47.185Z,17.10
2018-06-04T04:39:21.805Z,17.10
2018-06-04T04:42:00.086Z,17.20
2018-06-04T04:44:38.771Z,17.20
2018-06-04T04:51:19.641Z,17.30
2018-06-04T04:53:49.471Z,17.40
2018-06-04T05:04:49.748Z,17.60
2018-06-04T05:07:20.831Z,17.70
2018-06-04T05:09:50.319Z,17.80
2018-06-04T05:12:20.810Z,17.80
2018-06-04T05:14:50.653Z,17.90
2018-06-04T05:17:19.411Z,17.90
2018-06-04T05:19:48.192Z,18.00
2018-06-04T05:22:19.811Z,18.10
2018-06-04T05:25:00.324Z,18.10
2018-06-04T05:27:29.112Z,18.10
2018-06-04T05:29:57.868Z,18.10
2018-06-04T05:32:26.605Z,18.20
2018-06-04T05:34:55.236Z,18.20
2018-06-04T05:37:24.934Z,18.20
2018-06-04T05:39:56.652Z,18.30
2018-06-04T05:42:25.452Z,18.30
2018-06-04T05:44:54.197Z,18.40
2018-06-04T05:47:42.895Z,18.40
2018-06-04T05:50:11.698Z,18.50
2018-06-04T05:52:42.124Z,18.60
2018-06-04T05:55:10.847Z,18.60
2018-06-04T05:57:39.973Z,18.70
2018-06-04T06:00:08.622Z,18.70
2018-06-04T06:02:37.559Z,18.70
2018-06-04T06:05:06.955Z,18.80
2018-06-04T06:07:35.770Z,18.90
2018-06-04T06:10:05.511Z,18.90
2018-06-04T06:12:34.368Z,19.00
2018-06-04T06:15:03.691Z,19.10
2018-06-04T06:17:38.982Z,19.20
2018-06-04T06:20:07.756Z,19.30
2018-06-04T06:22:36.513Z,19.30
2018-06-04T06:25:05.984Z,19.40
2018-06-04T06:27:36.244Z,19.50
2018-06-04T06:30:13.311Z,19.60
2018-06-04T06:32:42.100Z,19.70
2018-06-04T06:35:10.808Z,19.70
2018-06-04T06:37:39.553Z,19.80
2018-06-04T06:40:08.368Z,20.00
2018-06-04T06:42:37.250Z,20.00
2018-06-04T06:45:06.738Z,20.10
2018-06-04T06:47:39.510Z,20.20
2018-06-04T06:50:09.850Z,20.30
2018-06-04T06:52:38.724Z,20.30
2018-06-04T06:55:07.510Z,20.40
2018-06-04T06:57:38.659Z,20.50
2018-06-04T07:00:07.575Z,20.60
2018-06-04T07:02:37.352Z,20.70
2018-06-04T07:05:06.156Z,20.90
2018-06-04T07:07:37.129Z,20.90
2018-06-04T07:10:05.843Z,21.00
2018-06-04T07:12:35.493Z,21.00
2018-06-04T07:15:09.713Z,21.00
2018-06-04T07:17:40.139Z,21.10
2018-06-04T07:20:09.004Z,21.20
2018-06-04T07:22:37.806Z,21.30
2018-06-04T07:25:08.877Z,21.40
2018-06-04T07:27:39.369Z,21.50
2018-06-04T07:30:08.148Z,21.60
2018-06-04T07:32:37.728Z,21.70
2018-06-04T07:35:06.580Z,21.80
2018-06-04T07:37:35.359Z,21.90
2018-06-04T07:40:05.895Z,22.00
2018-06-04T07:42:34.532Z,22.10
2018-06-04T07:45:48.071Z,22.30
2018-06-04T07:48:16.991Z,22.40
2018-06-04T07:50:45.887Z,22.60
2018-06-04T07:53:14.649Z,22.50
2018-06-04T07:55:43.466Z,22.50
2018-06-04T07:58:12.177Z,22.70
2018-06-04T08:00:40.867Z,22.90
2018-06-04T08:03:10.576Z,23.10
2018-06-04T08:05:39.340Z,23.20
2018-06-04T08:08:08.106Z,23.30
2018-06-04T08:10:36.992Z,23.50
2018-06-04T08:13:08.645Z,23.50
2018-06-04T08:15:39.102Z,23.60
2018-06-04T08:18:08.989Z,23.60
2018-06-04T08:20:55.302Z,23.80
2018-06-04T08:23:24.692Z,23.80
2018-06-04T08:25:54.159Z,24.00
2018-06-04T08:28:26.307Z,24.10
2018-06-04T08:30:54.968Z,24.30
2018-06-04T08:33:23.711Z,24.30
2018-06-04T08:35:52.429Z,24.30
2018-06-04T08:38:21.233Z,24.40
2018-06-04T08:40:50.862Z,24.50
2018-06-04T08:43:19.624Z,24.50
2018-06-04T08:45:48.400Z,24.60
2018-06-04T08:48:17.107Z,24.80
2018-06-04T08:50:45.897Z,25.00
2018-06-04T08:53:14.778Z,25.30
2018-06-04T08:55:45.241Z,25.50
2018-06-04T08:58:13.990Z,25.50
2018-06-04T09:00:44.628Z,25.50
2018-06-04T09:03:13.600Z,25.50
2018-06-04T09:05:42.313Z,25.70
2018-06-04T09:08:15.958Z,25.90
2018-06-04T09:10:44.584Z,26.00
2018-06-04T09:13:13.210Z,26.20
2018-06-04T09:15:41.905Z,26.20
2018-06-04T09:18:10.777Z,26.30
2018-06-04T09:20:39.563Z,26.30
2018-06-04T09:23:08.233Z,26.10
2018-06-04T09:25:40.991Z,26.10
2018-06-04T09:28:10.588Z,26.20
2018-06-04T09:30:39.400Z,26.30
2018-06-04T09:33:08.155Z,26.40
2018-06-04T09:35:36.996Z,26.50
2018-06-04T09:38:16.077Z,26.60
2018-06-04T09:40:45.512Z,26.70
2018-06-04T09:43:14.274Z,26.60
2018-06-04T09:45:43.050Z,26.60
2018-06-04T09:48:12.792Z,26.70
2018-06-04T09:50:41.530Z,26.90
2018-06-04T09:53:11.116Z,27.00
2018-06-04T09:55:40.971Z,27.30
2018-06-04T09:58:10.911Z,27.50
2018-06-04T10:00:54.282Z,27.60
2018-06-04T10:03:28.289Z,27.60
2018-06-04T10:06:10.003Z,27.70
2018-06-04T10:08:43.348Z,27.70
2018-06-04T10:11:13.075Z,27.60
2018-06-04T10:13:44.058Z,27.70
2018-06-04T10:16:15.135Z,27.70
2018-06-04T10:18:43.949Z,27.60
2018-06-04T10:21:21.172Z,27.70
2018-06-04T10:23:49.997Z,27.80
2018-06-04T10:26:18.778Z,27.80
2018-06-04T10:28:50.987Z,28.00
2018-06-04T10:31:22.598Z,28.20
2018-06-04T10:33:51.315Z,28.40
2018-06-04T10:36:20.276Z,28.40
2018-06-04T10:39:00.646Z,28.60
2018-06-04T10:41:40.872Z,28.70
2018-06-04T10:44:11.626Z,28.70
2018-06-04T10:46:40.375Z,28.70
2018-06-04T10:49:11.004Z,28.80
2018-06-04T10:54:31.399Z,29.10
2018-06-04T10:57:14.648Z,29.40
2018-06-04T10:59:46.849Z,29.50
2018-06-04T11:02:18.909Z,29.50
2018-06-04T11:04:51.309Z,29.40
2018-06-04T11:07:22.410Z,29.20
2018-06-04T11:09:52.075Z,29.30
2018-06-04T11:21:10.552Z,29.20
2018-06-04T11:23:39.478Z,29.40
2018-06-04T11:26:08.293Z,30.10
2018-06-04T11:28:40.211Z,30.20
2018-06-04T11:32:05.680Z,30.20
2018-06-04T11:34:34.846Z,30.20
2018-06-04T11:37:03.665Z,30.50
2018-06-04T11:39:37.918Z,30.60
2018-06-04T11:42:06.526Z,30.40
2018-06-04T11:44:35.128Z,30.10
2018-06-04T11:47:03.760Z,29.90
2018-06-04T11:49:32.457Z,30.10
2018-06-04T11:52:01.105Z,30.30
2018-06-04T11:54:29.680Z,30.70
2018-06-04T11:56:58.328Z,31.00
2018-06-04T11:59:26.963Z,31.20
2018-06-04T12:01:55.565Z,31.40
2018-06-04T12:04:24.176Z,31.20
2018-06-04T12:06:52.806Z,31.40
2018-06-04T12:09:21.478Z,32.50
2018-06-04T12:11:54.221Z,34.40
2018-06-04T12:14:22.882Z,35.70
2018-06-04T12:16:51.955Z,37.20
2018-06-04T12:19:20.591Z,39.10
2018-06-04T12:21:49.172Z,40.40
2018-06-04T12:24:17.825Z,41.10
2018-06-04T12:26:46.304Z,41.50
2018-06-04T12:29:14.928Z,41.40
2018-06-04T12:31:43.483Z,41.40
2018-06-04T12:34:12.048Z,40.70
2018-06-04T12:36:40.856Z,38.80
2018-06-04T12:39:09.796Z,39.20
2018-06-04T12:41:38.712Z,39.90
2018-06-04T12:44:07.304Z,40.80
2018-06-04T12:46:35.994Z,40.60
2018-06-04T12:49:04.591Z,39.50
2018-06-04T12:51:33.711Z,37.60
2018-06-04T12:54:02.400Z,36.70
2018-06-04T12:56:31.076Z,36.30
2018-06-04T12:58:59.857Z,36.90
2018-06-04T13:01:28.462Z,38.10
2018-06-04T13:03:56.978Z,39.20
2018-06-04T13:06:25.740Z,40.40
2018-06-04T13:08:54.777Z,41.30
2018-06-04T13:11:23.456Z,41.40
2018-06-04T13:13:52.061Z,42.30
2018-06-04T13:16:20.673Z,41.80
2018-06-04T13:18:49.550Z,42.10
2018-06-04T13:21:18.153Z,42.40
2018-06-04T13:23:46.803Z,42.90
2018-06-04T13:26:15.520Z,42.30
2018-06-04T13:28:44.073Z,42.10
2018-06-04T13:31:12.707Z,42.10
2018-06-04T13:33:41.351Z,41.20
2018-06-04T13:36:09.910Z,40.60
2018-06-04T13:38:38.492Z,40.20
2018-06-04T13:41:06.999Z,40.00
2018-06-04T13:43:35.721Z,39.70
2018-06-04T13:46:04.332Z,40.80
2018-06-04T13:48:32.994Z,42.00
2018-06-04T13:51:01.634Z,42.70
2018-06-04T13:53:30.824Z,43.80
2018-06-04T13:55:59.604Z,44.10
2018-06-04T13:58:28.236Z,43.00
2018-06-04T14:00:57.084Z,42.00
2018-06-04T14:03:25.668Z,40.90
2018-06-04T14:05:54.171Z,40.30
2018-06-04T14:08:22.763Z,39.80
2018-06-04T14:10:51.849Z,39.20
2018-06-04T14:13:20.359Z,37.40
2018-06-04T14:15:49.167Z,35.60
2018-06-04T14:18:17.717Z,34.90
2018-06-04T14:20:46.607Z,34.30
2018-06-04T14:23:15.136Z,33.50
2018-06-04T14:25:44.449Z,33.10
2018-06-04T14:28:13.753Z,33.00
2018-06-04T14:30:42.388Z,32.80
2018-06-04T14:33:11.071Z,33.50
2018-06-04T14:35:39.702Z,33.40
2018-06-04T14:38:08.264Z,33.30
2018-06-04T14:40:36.864Z,33.30
2018-06-04T14:43:05.387Z,32.90
2018-06-04T14:45:33.979Z,32.40
2018-06-04T14:48:02.544Z,32.10
2018-06-04T14:50:31.146Z,32.60
2018-06-04T14:53:00.019Z,32.80
2018-06-04T14:55:28.616Z,33.00
2018-06-04T14:57:57.696Z,33.00
2018-06-04T15:00:26.350Z,32.50
2018-06-04T15:02:55.124Z,32.30
2018-06-04T15:05:23.855Z,32.50
2018-06-04T15:07:52.389Z,33.00
2018-06-04T15:10:21.072Z,33.70
2018-06-04T15:12:49.738Z,34.30
2018-06-04T15:15:18.294Z,34.20
2018-06-04T15:17:46.772Z,33.60
2018-06-04T15:20:15.360Z,33.10
2018-06-04T15:22:43.868Z,32.80
2018-06-04T15:25:12.360Z,32.20
2018-06-04T15:27:40.954Z,31.80
2018-06-04T15:30:09.508Z,31.70
2018-06-04T15:32:38.084Z,31.60
2018-06-04T15:35:07.025Z,31.30
2018-06-04T15:37:35.544Z,31.20
2018-06-04T15:40:04.143Z,31.10
2018-06-04T15:42:32.681Z,30.90
2018-06-04T15:45:01.261Z,30.90
2018-06-04T15:47:29.848Z,30.90
2018-06-04T15:49:58.339Z,30.90
2018-06-04T15:52:26.872Z,30.90
2018-06-04T15:54:55.456Z,31.00
2018-06-04T15:57:24.587Z,31.00
2018-06-04T15:59:53.411Z,31.30
2018-06-04T16:02:21.963Z,31.50
2018-06-04T16:04:50.471Z,31.30
2018-06-04T16:07:19.229Z,31.30
2018-06-04T16:09:47.827Z,31.20
2018-06-04T16:12:16.373Z,31.10
2018-06-04T16:14:45.664Z,31.00
2018-06-04T16:17:14.141Z,31.10
2018-06-04T16:19:42.697Z,31.10
2018-06-04T16:22:11.355Z,31.20
2018-06-04T16:24:39.901Z,31.10
2018-06-04T16:27:08.512Z,30.90
2018-06-04T16:29:37.036Z,30.70
2018-06-04T16:32:06.391Z,30.50
2018-06-04T16:34:34.892Z,30.40
2018-06-04T16:37:03.476Z,30.40
2018-06-04T16:39:31.992Z,30.20
2018-06-04T16:42:00.868Z,30.20
2018-06-04T16:44:29.794Z,30.20
2018-06-04T16:46:58.366Z,30.30
2018-06-04T16:49:26.940Z,30.40
2018-06-04T16:51:55.480Z,30.40
2018-06-04T16:54:24.035Z,30.40
2018-06-04T16:56:52.773Z,30.30
2018-06-04T16:59:21.702Z,30.40
2018-06-04T17:01:50.443Z,30.60
2018-06-04T17:04:19.595Z,30.80
2018-06-04T17:06:48.230Z,31.10
2018-06-04T17:09:16.779Z,31.40
2018-06-04T17:11:45.711Z,31.70
2018-06-04T17:14:14.657Z,32.30
2018-06-04T17:16:43.231Z,32.80
2018-06-04T17:19:11.879Z,33.20
2018-06-04T17:21:40.435Z,33.70
2018-06-04T17:24:08.969Z,34.00
2018-06-04T17:26:37.529Z,34.20
2018-06-04T17:29:06.092Z,34.00
2018-06-04T17:31:34.715Z,33.50
2018-06-04T17:34:03.249Z,33.20
2018-06-04T17:36:32.437Z,33.10
2018-06-04T17:39:01.019Z,33.40
2018-06-04T17:41:29.611Z,33.60
2018-06-04T17:43:58.205Z,34.00
2018-06-04T17:46:26.826Z,34.20
2018-06-04T17:48:55.449Z,34.00
2018-06-04T17:51:24.015Z,33.90
2018-06-04T17:53:52.732Z,33.50
2018-06-04T17:56:21.371Z,33.40
2018-06-04T17:58:49.889Z,33.00
2018-06-04T18:01:18.518Z,32.40
2018-06-04T18:03:47.088Z,31.90
2018-06-04T18:06:15.743Z,31.50
2018-06-04T18:08:44.266Z,31.20
2018-06-04T18:11:13.642Z,31.20
2018-06-04T18:13:42.210Z,31.70
2018-06-04T18:16:10.805Z,31.90
2018-06-04T18:18:39.940Z,32.10
2018-06-04T18:21:08.533Z,32.10
2018-06-04T18:23:37.061Z,31.80
2018-06-04T18:26:06.320Z,31.10
2018-06-04T18:28:34.808Z,30.10
2018-06-04T18:31:03.321Z,29.20
2018-06-04T18:33:32.100Z,28.50
2018-06-04T18:36:00.891Z,27.90
2018-06-04T18:38:29.440Z,27.50
2018-06-04T18:40:58.143Z,27.10
2018-06-04T18:43:26.648Z,26.90
2018-06-04T18:45:55.175Z,26.60
2018-06-04T18:48:23.812Z,26.50
2018-06-04T18:50:52.356Z,26.30
2018-06-04T18:53:21.006Z,26.20
2018-06-04T18:55:49.592Z,26.10
2018-06-04T18:58:18.510Z,25.90
2018-06-04T19:00:47.091Z,25.80
2018-06-04T19:03:15.651Z,25.70
2018-06-04T19:05:44.203Z,25.60
2018-06-04T19:08:12.749Z,25.50
2018-06-04T19:10:41.385Z,25.40
2018-06-04T19:13:09.998Z,25.20
2018-06-04T19:15:39.330Z,25.10
2018-06-04T19:18:07.928Z,24.90
2018-06-04T19:20:36.707Z,24.90
2018-06-04T19:23:05.202Z,24.80
2018-06-04T19:25:33.703Z,24.80
2018-06-04T19:28:02.348Z,24.70
2018-06-04T19:30:30.864Z,24.60
2018-06-04T19:32:59.651Z,24.50
2018-06-04T19:35:28.219Z,24.50
2018-06-04T19:37:56.692Z,24.40
2018-06-04T19:40:25.200Z,24.40
2018-06-04T19:45:41.311Z,24.30
2018-06-04T19:51:35.681Z,24.20
2018-06-04T19:54:06.160Z,24.10
2018-06-04T19:56:35.047Z,24.00
2018-06-04T19:59:07.405Z,23.90
2018-06-04T20:01:36.159Z,23.80
2018-06-04T20:04:09.163Z,23.80
2018-06-04T20:06:38.859Z,23.70
2018-06-04T20:09:22.277Z,23.70
2018-06-04T20:11:58.095Z,23.70
2018-06-04T20:14:30.422Z,23.70
2018-06-04T20:17:01.660Z,23.60
2018-06-04T20:19:39.771Z,23.60
2018-06-04T20:22:08.471Z,23.50
2018-06-04T20:24:45.544Z,23.40
2018-06-04T20:27:14.156Z,23.30
2018-06-04T20:29:42.891Z,23.10
2018-06-04T20:32:13.053Z,22.90
2018-06-04T20:34:41.896Z,22.80
2018-06-04T20:37:11.360Z,22.70
2018-06-04T20:39:39.975Z,22.60
2018-06-04T20:42:08.966Z,22.50
2018-06-04T20:44:38.101Z,22.40
2018-06-04T20:47:07.960Z,22.40
2018-06-04T20:49:37.323Z,22.30
2018-06-04T20:52:06.159Z,22.20
2018-06-04T20:54:34.808Z,22.10
2018-06-04T20:57:03.538Z,22.00
2018-06-04T20:59:32.245Z,22.00
2018-06-04T21:02:02.948Z,21.90
2018-06-04T21:04:31.703Z,21.90
2018-06-04T21:07:00.867Z,21.80
2018-06-04T21:09:32.463Z,21.80
2018-06-04T21:12:01.392Z,21.70
2018-06-04T21:14:33.025Z,21.70
2018-06-04T21:17:01.792Z,21.60
2018-06-04T21:19:32.691Z,21.60
2018-06-04T21:22:01.595Z,21.50
2018-06-04T21:24:31.112Z,21.40
2018-06-04T21:26:59.652Z,21.40
2018-06-04T21:29:28.430Z,21.40
2018-06-04T21:31:57.359Z,21.30
2018-06-04T21:34:26.357Z,21.30
2018-06-04T21:36:54.877Z,21.20
2018-06-04T21:39:28.424Z,21.20
2018-06-04T21:42:00.596Z,21.10
2018-06-04T21:44:31.333Z,21.10
2018-06-04T21:47:00.001Z,21.10
2018-06-04T21:49:28.551Z,21.10
2018-06-04T21:51:57.127Z,21.10
2018-06-04T21:54:25.705Z,21.10
2018-06-04T21:56:54.519Z,21.10
2018-06-04T21:59:24.571Z,21.10
2018-06-04T22:01:53.224Z,21.00
2018-06-04T22:04:34.340Z,20.90
2018-06-04T22:07:33.172Z,20.90
2018-06-04T22:10:02.171Z,20.80
2018-06-04T22:12:30.646Z,20.70
2018-06-04T22:15:09.440Z,20.70
2018-06-04T22:17:38.083Z,20.60
2018-06-04T22:20:06.697Z,20.60
2018-06-04T22:22:35.276Z,20.50
2018-06-04T22:25:09.928Z,20.50
2018-06-04T22:27:41.908Z,20.50
2018-06-04T22:30:13.220Z,20.50
2018-06-04T22:32:46.400Z,20.40
2018-06-04T22:35:21.879Z,20.40
2018-06-04T22:37:55.211Z,20.40
2018-06-04T22:40:25.761Z,20.30
2018-06-04T22:42:54.305Z,20.30
2018-06-04T22:45:22.832Z,20.20
2018-06-04T22:47:51.407Z,20.10
2018-06-04T22:50:20.693Z,20.10
2018-06-04T22:52:49.206Z,20.00
2018-06-04T22:55:17.790Z,20.00
2018-06-04T22:57:47.034Z,19.90
2018-06-04T23:00:22.436Z,19.90
2018-06-04T23:02:50.939Z,19.90
2018-06-04T23:05:19.507Z,19.90
2018-06-04T23:07:47.990Z,19.80
2018-06-04T23:10:18.171Z,19.80
2018-06-04T23:12:47.108Z,19.80
2018-06-04T23:15:15.637Z,19.80
2018-06-04T23:17:44.136Z,19.70
2018-06-04T23:20:12.706Z,19.70
2018-06-04T23:22:41.197Z,19.60
2018-06-04T23:25:09.817Z,19.60
2018-06-04T23:27:38.337Z,19.60
2018-06-04T23:30:06.892Z,19.60
2018-06-04T23:32:35.520Z,19.60
2018-06-04T23:35:04.064Z,19.60
2018-06-04T23:37:32.579Z,19.50
2018-06-04T23:40:01.037Z,19.50
2018-06-04T23:42:29.578Z,19.50
2018-06-04T23:44:58.115Z,19.50
2018-06-04T23:47:26.639Z,19.40
2018-06-04T23:49:55.130Z,19.40
2018-06-04T23:52:23.652Z,19.40
2018-06-04T23:54:52.115Z,19.40
2018-06-04T23:57:20.659Z,19.30
2018-06-04T23:59:49.214Z,19.30
